Time;durP1;ratioP1;P1;durP2;ratioP2;P2;SDS_P1;SDS_P2;PMS_P1;PMS_P2;Temp;Humidity;BMP_temperature;BMP_pressure;BME280_temperature;BME280_humidity;BME280_pressure;Samples;Min_cycle;Max_cycle;Signal;HPM_P1;HPM_P2
2021/01/19 00:00:39;;;;;;;39.22;21.38;;;-0.80;99.90;;;;;;5073583;28;20085;-69
2021/01/19 00:03:05;;;;;;;46.20;23.45;;;-0.80;99.90;;;;;;5073347;28;20028;-73
2021/01/19 00:05:30;;;;;;;47.25;25.15;;;-0.70;99.90;;;;;;5073796;28;20435;-71
2021/01/19 00:07:56;;;;;;;47.95;24.35;;;-0.60;99.90;;;;;;5073633;28;20016;-71
2021/01/19 00:10:22;;;;;;;44.72;23.17;;;-0.60;99.90;;;;;;5073332;28;20493;-70
2021/01/19 00:12:47;;;;;;;45.85;21.35;;;-0.70;99.90;;;;;;5055518;28;20059;-71
2021/01/19 00:15:13;;;;;;;37.35;20.27;;;-0.70;99.90;;;;;;5073202;28;20024;-70
2021/01/19 00:17:41;;;;;;;37.97;19.95;;;-0.70;99.90;;;;;;5073694;28;20106;-72
2021/01/19 00:20:08;;;;;;;38.92;20.15;;;-0.80;99.90;;;;;;5073097;28;20471;-73
2021/01/19 00:22:33;;;;;;;38.15;19.90;;;-0.70;99.90;;;;;;5073113;28;20081;-72
2021/01/19 00:25:00;;;;;;;36.55;18.15;;;-0.70;99.90;;;;;;5073790;28;20100;-72
2021/01/19 00:27:26;;;;;;;42.67;18.42;;;-0.70;99.90;;;;;;5072884;28;20025;-72
2021/01/19 00:29:52;;;;;;;35.83;18.13;;;-0.80;99.90;;;;;;5055324;28;20043;-73
2021/01/19 00:32:18;;;;;;;37.35;19.60;;;-0.80;99.90;;;;;;5073228;28;20021;-74
2021/01/19 00:34:43;;;;;;;37.33;19.70;;;-0.70;99.90;;;;;;5072635;28;20024;-72
2021/01/19 00:37:09;;;;;;;28.27;15.85;;;-0.70;99.90;;;;;;5073411;28;20025;-72
2021/01/19 00:39:35;;;;;;;33.53;17.77;;;-0.70;99.90;;;;;;5073446;28;20040;-71
2021/01/19 00:42:00;;;;;;;33.72;16.52;;;-0.70;99.90;;;;;;5072294;28;20017;-71
2021/01/19 00:44:26;;;;;;;40.80;20.55;;;-0.70;99.90;;;;;;5073493;28;20032;-70
2021/01/19 00:46:52;;;;;;;36.78;19.42;;;-0.60;99.90;;;;;;5064516;28;20031;-69
2021/01/19 00:49:18;;;;;;;40.28;18.95;;;-0.70;99.90;;;;;;5058384;28;20036;-73
2021/01/19 00:51:44;;;;;;;43.75;22.30;;;-0.60;99.90;;;;;;5073654;28;20351;-73
2021/01/19 00:54:10;;;;;;;49.97;23.98;;;-0.60;99.90;;;;;;5073371;28;20051;-71
2021/01/19 00:56:40;;;;;;;46.53;25.30;;;-0.40;99.90;;;;;;5071357;28;20044;-72
2021/01/19 00:59:07;;;;;;;57.92;28.52;;;-0.30;99.90;;;;;;5071496;28;20017;-72
2021/01/19 01:01:33;;;;;;;52.28;26.08;;;-0.40;99.90;;;;;;5071159;28;20028;-70
2021/01/19 01:03:59;;;;;;;50.00;25.58;;;-0.50;99.90;;;;;;5071317;28;20611;-69
2021/01/19 01:06:25;;;;;;;47.78;25.05;;;-0.40;99.90;;;;;;5053335;28;20029;-70
2021/01/19 01:08:51;;;;;;;55.30;24.80;;;-0.60;99.90;;;;;;5072672;28;20041;-70
2021/01/19 01:11:17;;;;;;;52.85;26.08;;;-0.50;99.90;;;;;;5073079;28;20126;-71
2021/01/19 01:13:43;;;;;;;44.05;25.55;;;-0.60;99.90;;;;;;5073182;28;20029;-70
2021/01/19 01:16:15;;;;;;;46.33;22.77;;;-0.70;99.90;;;;;;5072668;28;20024;-71
2021/01/19 01:18:40;;;;;;;40.83;21.80;;;-0.80;99.90;;;;;;5055540;28;20033;-71
2021/01/19 01:21:12;;;;;;;46.58;25.15;;;-0.80;99.90;;;;;;5072728;28;20028;-71
2021/01/19 01:23:39;;;;;;;35.58;21.00;;;;;;;;;;5060576;28;20086;-71
2021/01/19 01:26:06;;;;;;;40.13;20.45;;;;;;;;;;5073007;28;20021;-69
2021/01/19 01:28:32;;;;;;;38.08;19.77;;;;;;;;;;5073378;28;20466;-71
2021/01/19 01:30:59;;;;;;;40.28;19.83;;;;;;;;;;5072668;28;20033;-71
2021/01/19 01:33:26;;;;;;;40.03;21.17;;;;;;;;;;5073220;28;20028;-71
2021/01/19 01:35:53;;;;;;;43.63;21.67;;;;;;;;;;5073260;28;20025;-71
2021/01/19 01:38:19;;;;;;;43.67;22.48;;;;;;;;;;5070427;28;20021;-71
2021/01/19 01:40:45;;;;;;;53.67;25.33;;;;;;;;;;5061257;28;20024;-72
2021/01/19 01:43:15;;;;;;;59.47;28.55;;;;;;;;;;5058909;28;20063;-70
2021/01/19 01:45:41;;;;;;;62.60;29.23;;;;;;;;;;5065891;28;20018;-71
2021/01/19 01:48:09;;;;;;;60.90;28.27;;;;;;;;;;5035275;28;20437;-71
2021/01/19 01:50:36;;;;;;;49.95;23.67;;;;;;;;;;5066968;28;20095;-71
2021/01/19 01:53:02;;;;;;;35.13;20.08;;;;;;;;;;5064049;28;20025;-71
2021/01/19 01:55:28;;;;;;;38.08;19.70;;;;;;;;;;5072634;28;20024;-72
2021/01/19 01:57:57;;;;;;;40.38;18.88;;;;;;;;;;5073145;28;20028;-72
2021/01/19 02:00:24;;;;;;;39.10;21.23;;;;;;;;;;5072295;28;20036;-72
2021/01/19 02:02:52;;;;;;;37.92;19.80;;;;;;;;;;5072804;28;20040;-72
2021/01/19 02:05:19;;;;;;;36.58;20.17;;;;;;;;;;5061896;28;20025;-71
2021/01/19 02:07:49;;;;;;;48.10;24.35;;;;;;;;;;5052433;28;20025;-70
2021/01/19 02:10:29;;;;;;;48.50;24.67;;;;;;;;;;5076541;28;20029;-71
2021/01/19 02:13:08;;;;;;;56.83;30.45;;;;;;;;;;5062358;28;20020;-72
2021/01/19 02:15:42;;;;;;;55.42;26.40;;;;;;;;;;5076778;28;20021;-70
2021/01/19 02:18:28;;;;;;;47.25;22.38;;;;;;;;;;5076836;28;20382;-72
2021/01/19 02:21:05;;;;;;;39.40;19.52;;;;;;;;;;5076347;28;20443;-72
2021/01/19 02:23:39;;;;;;;38.45;19.10;;;;;;;;;;5062765;28;20047;-72
2021/01/19 02:26:21;;;;;;;45.17;21.40;;;;;;;;;;5076610;28;20025;-71
2021/01/19 02:28:56;;;;;;;41.58;19.65;;;;;;;;;;5064119;28;20023;-70
2021/01/19 02:31:41;;;;;;;45.65;24.10;;;;;;;;;;5076455;28;20031;-72
2021/01/19 02:34:09;;;;;;;52.50;25.05;;;;;;;;;;5075953;28;20021;-71
2021/01/19 02:36:35;;;;;;;62.92;33.35;;;;;;;;;;5076363;28;20048;-70
2021/01/19 02:39:03;;;;;;;58.90;31.40;;;;;;;;;;5058382;28;20020;-69
2021/01/19 02:41:29;;;;;;;72.55;38.35;;;;;;;;;;5075649;28;20021;-70
2021/01/19 02:44:19;;;;;;;81.18;40.17;;;;;;;;;;5076177;28;20099;-69
2021/01/19 02:46:51;;;;;;;43.38;23.92;;;;;;;;;;5075858;28;20016;-70
2021/01/19 02:49:18;;;;;;;49.85;26.77;;;;;;;;;;5057885;28;20385;-71
2021/01/19 02:51:46;;;;;;;49.55;26.92;;;;;;;;;;5075658;28;20024;-70
2021/01/19 02:54:14;;;;;;;47.25;22.65;;;;;;;;;;5075477;28;20017;-69
2021/01/19 02:56:59;;;;;;;41.60;22.13;;;;;;;;;;5075746;28;20020;-69
2021/01/19 02:59:26;;;;;;;44.53;22.13;;;;;;;;;;5046052;28;20548;-69
2021/01/19 03:02:00;;;;;;;46.88;23.98;;;;;;;;;;5071287;28;20051;-67
2021/01/19 03:04:27;;;;;;;39.75;23.05;;;;;;;;;;5075728;28;20025;-69
2021/01/19 03:06:56;;;;;;;45.67;26.25;;;;;;;;;;5082081;28;20425;-71
2021/01/19 03:09:25;;;;;;;53.08;28.98;;;;;;;;;;5078956;28;20025;-70
2021/01/19 03:11:52;;;;;;;54.50;26.38;;;;;;;;;;5075868;28;20063;-69
2021/01/19 03:14:19;;;;;;;48.45;24.83;;;;;;;;;;5075703;28;20029;-72
2021/01/19 03:16:47;;;;;;;48.72;22.73;;;;;;;;;;5057967;28;20490;-70
2021/01/19 03:19:16;;;;;;;42.25;25.00;;;;;;;;;;5074196;28;20013;-70
2021/01/19 03:21:44;;;;;;;51.58;26.67;;;;;;;;;;5075405;28;20040;-70
2021/01/19 03:24:10;;;;;;;50.70;26.77;;;;;;;;;;5073814;28;20017;-71
2021/01/19 03:26:36;;;;;;;46.63;28.50;;;;;;;;;;5075065;28;20050;-70
2021/01/19 03:29:04;;;;;;;44.33;24.45;;;;;;;;;;5075112;28;20470;-71
2021/01/19 03:31:31;;;;;;;41.17;20.02;;;;;;;;;;5067163;28;20036;-70
2021/01/19 03:33:57;;;;;;;50.53;26.35;;;;;;;;;;5075472;28;20024;-70
2021/01/19 03:36:23;;;;;;;49.58;25.23;;;;;;;;;;5067071;28;20433;-70
2021/01/19 03:38:49;;;;;;;48.03;23.23;;;;;;;;;;5074993;28;20486;-70
2021/01/19 03:41:15;;;;;;;40.15;21.08;;;;;;;;;;5075051;28;20032;-71
2021/01/19 03:43:41;;;;;;;36.40;20.17;;;;;;;;;;5074409;28;20021;-71
2021/01/19 03:46:07;;;;;;;40.53;19.42;;;;;;;;;;5074995;28;20432;-71
2021/01/19 03:48:33;;;;;;;38.65;19.90;;;;;;;;;;5075019;28;20362;-72
2021/01/19 03:50:59;;;;;;;41.00;17.52;;;;;;;;;;5074335;28;20111;-72
2021/01/19 03:53:25;;;;;;;33.83;18.27;;;;;;;;;;5069476;28;20025;-71
2021/01/19 03:55:51;;;;;;;43.17;21.02;;;;;;;;;;5074557;28;20493;-71
2021/01/19 03:58:17;;;;;;;43.63;22.42;;;;;;;;;;5074525;28;20120;-70
2021/01/19 04:00:43;;;;;;;39.35;21.95;;;;;;;;;;5074924;28;20056;-71
2021/01/19 04:03:09;;;;;;;43.80;21.23;;;;;;;;;;5073532;28;20021;-69
2021/01/19 04:05:35;;;;;;;36.58;18.80;;;;;;;;;;5074436;28;20024;-69
2021/01/19 04:08:01;;;;;;;35.10;19.15;;;;;;;;;;5074360;28;20028;-70
2021/01/19 04:10:27;;;;;;;36.88;20.23;;;;;;;;;;5074287;28;20032;-69
2021/01/19 04:12:53;;;;;;;37.30;20.13;;;;;;;;;;5074207;28;20021;-71
2021/01/19 04:15:20;;;;;;;38.60;20.25;;;;;;;;;;5073846;28;20023;-72
2021/01/19 04:17:46;;;;;;;40.40;20.30;;;;;;;;;;5070709;28;20056;-70
2021/01/19 04:20:12;;;;;;;39.65;20.33;;;;;;;;;;5065187;28;20027;-70
2021/01/19 04:22:38;;;;;;;34.28;19.23;;;;;;;;;;5074005;28;20055;-71
2021/01/19 04:25:05;;;;;;;33.00;17.98;;;;;;;;;;5072933;28;20029;-72
2021/01/19 04:27:31;;;;;;;32.53;17.42;;;;;;;;;;5066793;28;20040;-71
2021/01/19 04:29:57;;;;;;;29.00;18.20;;;;;;;;;;5073865;28;20044;-71
2021/01/19 04:32:23;;;;;;;31.17;16.98;;;;;;;;;;5071152;28;20016;-70
2021/01/19 04:34:49;;;;;;;33.53;17.13;;;;;;;;;;5069365;28;20024;-71
2021/01/19 04:37:15;;;;;;;33.53;17.73;;;;;;;;;;5073635;28;20037;-72
2021/01/19 04:39:42;;;;;;;35.13;19.90;;;;;;;;;;5073482;28;20032;-71
2021/01/19 04:42:08;;;;;;;36.38;18.90;;;;;;;;;;5073689;28;20023;-70
2021/01/19 04:44:35;;;;;;;40.03;21.27;;;;;;;;;;5073512;28;20029;-72
2021/01/19 04:47:01;;;;;;;42.30;22.45;;;;;;;;;;5073182;28;20024;-72
2021/01/19 04:49:28;;;;;;;35.50;20.48;;;;;;;;;;5073619;28;20458;-71
2021/01/19 04:51:57;;;;;;;41.20;20.00;;;;;;;;;;5048248;28;20032;-70
2021/01/19 04:54:26;;;;;;;44.40;22.60;;;;;;;;;;5066647;28;20078;-70
2021/01/19 04:56:55;;;;;;;46.50;21.70;;;;;;;;;;5073269;28;20029;-70
2021/01/19 04:59:23;;;;;;;48.13;23.83;;;;;;;;;;5073367;28;20493;-72
2021/01/19 05:01:51;;;;;;;55.88;25.02;;;;;;;;;;5073327;28;20024;-71
2021/01/19 05:04:27;;;;;;;77.28;36.65;;;;;;;;;;5059514;28;20025;-71
2021/01/19 05:07:11;;;;;;;46.50;22.77;;;;;;;;;;5073347;28;20029;-72
2021/01/19 05:09:47;;;;;;;41.60;20.27;;;;;;;;;;5073146;28;20043;-71
2021/01/19 05:12:19;;;;;;;41.90;18.90;;;;;;;;;;5073651;28;20052;-72
2021/01/19 05:14:45;;;;;;;46.65;23.60;;;;;;;;;;5072848;28;20055;-72
2021/01/19 05:17:11;;;;;;;46.28;23.23;;;;;;;;;;5073097;28;20102;-72
2021/01/19 05:19:38;;;;;;;63.65;27.80;;;;;;;;;;5073021;28;20389;-70
2021/01/19 05:22:05;;;;;;;91.07;36.15;;;;;;;;;;5073136;28;20107;-71
2021/01/19 05:24:31;;;;;;;152.88;52.75;;;;;;;;;;5055330;28;20028;-72
2021/01/19 05:26:57;;;;;;;124.32;46.60;;;;;;;;;;5086016;28;20024;-72
2021/01/19 05:29:23;;;;;;;90.93;34.22;;;;;;;;;;5079383;28;20020;-72
2021/01/19 05:31:52;;;;;;;65.28;27.92;;;;;;;;;;5068534;28;20013;-73
2021/01/19 05:34:18;;;;;;;94.13;36.30;;;;;;;;;;5045706;28;20032;-72
2021/01/19 05:36:46;;;;;;;82.57;33.40;;;;;;;;;;5048161;28;20028;-71
2021/01/19 05:39:13;;;;;;;106.53;42.40;;;;;;;;;;5072909;28;20028;-72
2021/01/19 05:41:50;;;;;;;83.43;30.70;;;;;;;;;;5054840;28;20017;-73
2021/01/19 05:44:17;;;;;;;68.93;30.88;;;;;;;;;;5072415;28;20016;-72
2021/01/19 05:46:45;;;;;;;68.75;26.50;;;;;;;;;;5058902;28;20025;-70
2021/01/19 05:49:15;;;;;;;51.97;22.38;;;;;;;;;;5073052;28;20114;-70
2021/01/19 05:51:42;;;;;;;66.00;26.25;;;;;;;;;;5070854;28;20486;-71
2021/01/19 05:54:11;;;;;;;53.45;26.35;;;;;;;;;;5070684;28;20020;-72
2021/01/19 05:56:38;;;;;;;50.13;24.55;;;;;;;;;;5069584;28;20025;-71
2021/01/19 05:59:05;;;;;;;55.30;27.50;;;;;;;;;;5070894;28;20013;-70
2021/01/19 06:01:34;;;;;;;64.63;32.70;;;;;;;;;;5071228;28;20428;-69
2021/01/19 06:04:01;;;;;;;152.18;78.07;;;;;;;;;;5054532;28;20374;-70
2021/01/19 06:06:28;;;;;;;114.07;60.25;;;;;;;;;;5066604;28;20020;-71
2021/01/19 06:08:58;;;;;;;106.32;47.17;;;;;;;;;;5064709;28;20032;-70
2021/01/19 06:11:24;;;;;;;49.42;26.02;;;;;;;;;;5070651;28;20031;-70
2021/01/19 06:13:53;;;;;;;45.78;20.92;;;;;;;;;;5073646;28;20059;-71
2021/01/19 06:16:25;;;;;;;39.55;20.70;;;;;;;;;;5072481;28;20021;-69
2021/01/19 06:18:52;;;;;;;37.00;20.17;;;;;;;;;;5072581;28;20107;-71
2021/01/19 06:21:28;;;;;;;30.60;17.98;;;;;;;;;;5072651;28;20033;-70
2021/01/19 06:23:54;;;;;;;45.50;20.35;;;;;;;;;;5073183;28;20055;-70
2021/01/19 06:26:20;;;;;;;66.05;33.42;;;;;;;;;;5072521;28;20033;-72
2021/01/19 06:28:46;;;;;;;45.83;24.75;;;;;;;;;;5072741;28;20111;-71
2021/01/19 06:31:15;;;;;;;51.50;28.40;;;;;;;;;;5072018;28;20033;-70
2021/01/19 06:33:42;;;;;;;54.88;29.52;;;;;;;;;;5054962;28;20446;-71
2021/01/19 06:36:09;;;;;;;67.20;32.42;;;;;;;;;;5072683;28;20021;-70
2021/01/19 06:38:35;;;;;;;55.90;29.30;;;;;;;;;;5054166;28;20016;-72
2021/01/19 06:41:02;;;;;;;64.13;32.33;;;;;;;;;;5054496;28;20024;-72
2021/01/19 06:43:35;;;;;;;84.13;42.08;;;;;;;;;;5072317;28;20094;-72
2021/01/19 06:46:06;;;;;;;71.97;36.13;;;;;;;;;;5072381;28;20024;-72
2021/01/19 06:48:32;;;;;;;72.18;36.75;;;;;;;;;;5072570;28;20024;-72
2021/01/19 06:51:02;;;;;;;53.03;28.45;;;;;;;;;;5072504;28;20029;-71
2021/01/19 06:53:37;;;;;;;43.15;24.17;;;;;;;;;;5071829;28;20031;-71
2021/01/19 06:56:06;;;;;;;124.75;53.00;;;;;;;;;;5075486;28;20013;-71
2021/01/19 06:58:41;;;;;;;83.75;39.58;;;;;;;;;;5056231;28;20027;-71
2021/01/19 07:01:11;;;;;;;90.60;40.20;;;;;;;;;;5073722;28;20035;-71
2021/01/19 07:03:38;;;;;;;74.13;36.03;;;;;;;;;;5074803;28;20027;-71
2021/01/19 07:06:07;;;;;;;84.63;43.88;;;;;;;;;;5074337;28;20019;-72
2021/01/19 07:08:45;;;;;;;91.20;44.63;;;;;;;;;;5074373;28;20017;-70
2021/01/19 07:11:27;;;;;;;81.43;40.72;;;;;;;;;;5073845;28;20045;-71
2021/01/19 07:14:04;;;;;;;71.38;35.13;;;;;;;;;;5074113;28;20027;-71
2021/01/19 07:16:32;;;;;;;74.03;40.38;;;;;;;;;;5073598;28;20111;-72
2021/01/19 07:19:16;;;;;;;71.68;37.42;;;;;;;;;;5074146;28;20048;-71
2021/01/19 07:21:48;;;;;;;99.32;56.67;;;;;;;;;;5073669;28;20078;-72
2021/01/19 07:24:20;;;;;;;106.68;64.03;;;;;;;;;;5074192;28;20025;-70
2021/01/19 07:26:47;;;;;;;99.18;56.95;;;;;;;;;;5068735;28;20043;-71
2021/01/19 07:29:15;;;;;;;92.28;51.30;;;;;;;;;;5070529;28;20481;-72
2021/01/19 07:31:41;;;;;;;103.13;53.65;;;;;;;;;;5073001;28;20059;-71
2021/01/19 07:34:08;;;;;;;78.50;41.58;;;;;;;;;;5063833;28;20021;-72
2021/01/19 07:36:34;;;;;;;84.75;41.78;;;;;;;;;;5072513;28;20056;-70
2021/01/19 07:39:10;;;;;;;91.80;44.15;;;;;;;;;;5050975;28;20024;-70
2021/01/19 07:41:36;;;;;;;69.38;35.13;;;;;;;;;;5072040;28;20052;-69
2021/01/19 07:44:03;;;;;;;80.68;43.33;;;;;;;;;;5068994;28;20023;-70
2021/01/19 07:46:29;;;;;;;123.00;60.15;;;;;;;;;;5079152;28;20032;-69
2021/01/19 07:49:00;;;;;;;152.80;71.85;;;;;;;;;;5077011;28;20017;-71
2021/01/19 07:51:26;;;;;;;93.53;46.90;;;;;;;;;;5050977;28;20499;-74
2021/01/19 07:53:53;;;;;;;56.50;32.08;;;;;;;;;;5072616;28;20047;-70
2021/01/19 07:56:23;;;;;;;53.25;30.10;;;;;;;;;;5054339;28;20024;-72
2021/01/19 07:58:49;;;;;;;62.10;33.00;;;;;;;;;;5054775;28;20371;-71
2021/01/19 08:01:27;;;;;;;45.00;27.13;;;;;;;;;;5074957;28;20029;-71
2021/01/19 08:03:54;;;;;;;46.05;24.95;;;;;;;;;;5074502;28;20017;-72
2021/01/19 08:06:30;;;;;;;51.38;26.80;;;;;;;;;;5074119;28;20095;-72
2021/01/19 08:08:56;;;;;;;58.60;33.00;;;;;;;;;;5074793;28;20056;-70
2021/01/19 08:11:22;;;;;;;78.55;41.35;;;;;;;;;;5074166;28;20434;-71
2021/01/19 08:13:58;;;;;;;66.00;37.55;;;;;;;;;;5074319;28;20017;-72
2021/01/19 08:16:28;;;;;;;56.13;32.63;;;;;;;;;;5067216;28;20037;-72
2021/01/19 08:19:04;;;;;;;54.28;28.30;;;;;;;;;;5069552;28;20056;-71
2021/01/19 08:21:33;;;;;;;51.45;27.58;;;;;;;;;;5067667;28;20024;-71
2021/01/19 08:24:06;;;;;;;62.88;29.00;;;;;;;;;;5073903;28;20016;-71
2021/01/19 08:26:32;;;;;;;41.95;24.60;;;;;;;;;;5074065;28;20021;-72
2021/01/19 08:29:00;;;;;;;45.05;22.05;;;;;;;;;;5074040;28;20036;-73
2021/01/19 08:31:30;;;;;;;42.55;23.50;;;;;;;;;;5072538;28;20036;-73
2021/01/19 08:34:04;;;;;;;45.55;23.25;;;;;;;;;;5048418;28;20116;-70
2021/01/19 08:36:30;;;;;;;;;;;;;;;;;;5069175;28;20025;-69
2021/01/19 08:38:56;;;;;;;75.70;34.03;;;;;;;;;;5072549;28;19927;-72
2021/01/19 08:41:22;;;;;;;137.48;57.55;;;;;;;;;;5072025;28;20028;-72
2021/01/19 08:43:56;;;;;;;71.88;34.60;;;;;;;;;;5072343;28;20021;-71
2021/01/19 08:46:23;;;;;;;62.70;29.20;;;;;;;;;;5053251;28;20470;-73
2021/01/19 08:48:52;;;;;;;45.72;26.33;;;;;;;;;;5073311;28;20028;-73
2021/01/19 08:51:25;;;;;;;54.55;30.27;;;;;;;;;;5071327;28;20025;-72
2021/01/19 08:53:52;;;;;;;94.63;40.72;;;;;;;;;;5071978;28;20101;-71
2021/01/19 08:56:18;;;;;;;90.22;41.38;;;;;;;;;;5071365;28;20374;-71
2021/01/19 08:58:48;;;;;;;56.95;27.60;;;;;;;;;;5071041;28;20077;-69
2021/01/19 09:01:14;;;;;;;51.10;27.38;;;;;;;;;;5071782;28;20025;-70
2021/01/19 09:03:41;;;;;;;38.65;21.58;;;;;;;;;;5071315;28;20020;-73
2021/01/19 09:06:08;;;;;;;44.97;23.48;;;;;;;;;;5071527;28;20102;-72
2021/01/19 09:08:35;;;;;;;41.05;21.50;;;;;;;;;;5072059;28;20024;-71
2021/01/19 09:11:06;;;;;;;39.97;22.13;;;;;;;;;;5071453;28;20129;-70
2021/01/19 09:13:33;;;;;;;41.17;23.17;;;;;;;;;;5071579;28;20024;-75
2021/01/19 09:15:59;;;;;;;43.55;23.15;;;;;;;;;;5071749;28;20016;-72
2021/01/19 09:18:25;;;;;;;46.92;24.20;;;;;;;;;;5067676;28;20048;-73
2021/01/19 09:21:00;;;;;;;46.25;23.60;;;;;;;;;;5062519;28;20029;-72
2021/01/19 09:23:30;;;;;;;48.05;27.38;;;;;;;;;;5070632;28;20025;-70
2021/01/19 09:26:01;;;;;;;44.38;23.40;;;;;;;;;;5071868;28;20021;-70
2021/01/19 09:28:28;;;;;;;42.83;25.13;;;;;;;;;;5071500;28;20021;-71
2021/01/19 09:30:54;;;;;;;43.72;25.52;;;;;;;;;;5071393;28;20024;-70
2021/01/19 09:33:20;;;;;;;43.17;24.45;;;;;;;;;;5071158;28;20043;-71
2021/01/19 09:35:46;;;;;;;46.38;25.92;;;;;;;;;;5053851;28;20031;-71
2021/01/19 09:38:13;;;;;;;36.72;23.30;;;;;;;;;;5072097;28;20020;-71
2021/01/19 09:40:39;;;;;;;42.78;24.40;;;;;;;;;;5072411;28;20031;-71
2021/01/19 09:43:12;;;;;;;36.72;23.10;;;;;;;;;;5071495;28;20066;-70
2021/01/19 09:45:39;;;;;;;38.05;21.95;;;;;;;;;;5071751;28;20142;-72
2021/01/19 09:48:06;;;;;;;32.97;19.45;;;;;;;;;;5071914;28;20093;-71
2021/01/19 09:50:32;;;;;;;44.85;22.63;;;;;;;;;;5072328;28;20087;-70
2021/01/19 09:52:58;;;;;;;35.55;19.90;;;;;;;;;;5063154;28;20033;-71
2021/01/19 09:55:29;;;;;;;40.22;21.13;;;;;;;;;;5068032;28;20043;-72
2021/01/19 09:58:02;;;;;;;34.60;18.95;;;;;;;;;;5072172;28;20024;-73
2021/01/19 10:00:37;;;;;;;34.67;20.33;;;;;;;;;;5072414;28;20039;-72
2021/01/19 10:03:10;;;;;;;35.63;20.65;;;;;;;;;;5071887;28;20024;-72
2021/01/19 10:05:36;;;;;;;38.43;21.13;;;;;;;;;;5073689;28;20033;-72
2021/01/19 10:08:02;;;;;;;36.42;20.83;;;;;;;;;;5073120;28;20108;-74
2021/01/19 10:10:35;;;;;;;36.50;20.30;;;;;;;;;;5072460;28;20064;-79
2021/01/19 10:13:05;;;;;;;52.90;21.43;;;;;;;;;;5064504;28;20038;-72
2021/01/19 10:15:31;;;;;;;39.15;21.33;;;;;;;;;;5062675;28;20040;-72
2021/01/19 10:17:58;;;;;;;38.63;21.88;;;;;;;;;;5074122;28;20117;-73
2021/01/19 10:20:31;;;;;;;36.17;18.65;;;;;;;;;;5091377;28;20063;-73
2021/01/19 10:22:58;;;;;;;46.88;20.95;;;;;;;;;;5089280;28;20366;-72
2021/01/19 10:25:34;;;;;;;33.15;19.25;;;;;;;;;;5087959;28;20091;-73
2021/01/19 10:28:01;;;;;;;36.88;20.55;;;;;;;;;;5091188;28;20038;-72
2021/01/19 10:30:31;;;;;;;57.80;27.42;;;;;;;;;;5095613;28;20038;-71
2021/01/19 10:32:57;;;;;;;35.72;20.52;;;;;;;;;;5095135;28;20034;-71
2021/01/19 10:35:25;;;;;;;31.42;20.48;;;;;;;;;;5093879;28;20060;-71
2021/01/19 10:37:52;;;;;;;48.33;25.63;;;;;;;;;;5095470;28;20111;-70
2021/01/19 10:40:18;;;;;;;48.72;27.92;;;;;;;;;;5095422;28;20029;-71
2021/01/19 10:42:45;;;;;;;70.93;38.40;;;;;;;;;;5096288;28;20081;-73
2021/01/19 10:45:11;;;;;;;83.05;43.80;;;;;;;;;;5095030;28;20027;-72
2021/01/19 10:47:45;;;;;;;67.55;36.97;;;;;;;;;;5094412;28;20390;-72
2021/01/19 10:50:11;;;;;;;76.85;43.08;;;2.90;99.90;;;;;;5077569;28;20039;-73
2021/01/19 10:52:38;;;;;;;77.63;44.45;;;;;;;;;;5064434;28;20040;-73
2021/01/19 10:55:03;;;;;;;64.25;36.72;;;2.90;99.90;;;;;;5093421;28;20031;-71
2021/01/19 10:57:29;;;;;;;72.45;40.90;;;3.00;99.90;;;;;;5081289;28;20028;-76
2021/01/19 10:59:55;;;;;;;69.65;38.20;;;3.00;99.90;;;;;;5094973;28;20488;-72
2021/01/19 11:02:21;;;;;;;70.90;38.95;;;;;;;;;;5095242;28;20080;-74
2021/01/19 11:04:47;;;;;;;55.05;33.80;;;3.10;99.90;;;;;;5076959;28;20014;-72
2021/01/19 11:07:12;;;;;;;66.18;37.60;;;3.10;99.90;;;;;;5077071;28;20509;-73
2021/01/19 11:09:38;;;;;;;54.47;30.27;;;3.20;99.90;;;;;;5091579;28;20541;-74
2021/01/19 11:12:04;;;;;;;41.17;25.63;;;3.20;99.90;;;;;;5094779;28;20042;-75
2021/01/19 11:14:30;;;;;;;40.50;25.35;;;3.50;99.90;;;;;;5095113;28;20024;-72
2021/01/19 11:16:55;;;;;;;44.00;25.25;;;3.70;99.90;;;;;;5087097;28;20056;-72
2021/01/19 11:19:21;;;;;;;44.42;25.13;;;3.80;99.90;;;;;;5073624;28;20406;-73
2021/01/19 11:21:47;;;;;;;39.30;24.42;;;3.90;99.90;;;;;;5074556;28;20024;-73
2021/01/19 11:24:12;;;;;;;42.38;25.67;;;3.90;99.90;;;;;;5073580;28;20106;-73
2021/01/19 11:26:40;;;;;;;45.72;26.15;;;4.00;99.90;;;;;;5072144;28;20025;-72
2021/01/19 11:29:07;;;;;;;42.50;26.35;;;4.10;99.90;;;;;;5073681;28;20454;-72
2021/01/19 11:31:34;;;;;;;48.20;29.38;;;4.00;99.90;;;;;;5072796;28;20039;-73
2021/01/19 11:34:05;;;;;;;57.80;30.73;;;4.10;99.90;;;;;;5066442;28;20017;-73
2021/01/19 11:36:33;;;;;;;64.57;36.75;;;4.00;99.90;;;;;;5069407;28;20021;-73
2021/01/19 11:39:00;;;;;;;72.30;37.30;;;4.00;99.90;;;;;;5073229;28;20032;-71
2021/01/19 11:41:27;;;;;;;60.03;33.63;;;4.00;99.90;;;;;;5073007;28;20052;-74
2021/01/19 11:43:54;;;;;;;54.45;28.48;;;4.00;99.90;;;;;;5073487;28;20017;-70
2021/01/19 11:46:23;;;;;;;45.55;26.38;;;3.50;99.90;;;;;;5073697;28;20032;-70
2021/01/19 11:48:50;;;;;;;51.75;28.95;;;4.00;99.90;;;;;;5071712;28;20028;-75
2021/01/19 11:51:18;;;;;;;47.67;25.35;;;4.40;99.90;;;;;;5069330;28;20036;-74
2021/01/19 11:53:49;;;;;;;56.17;32.22;;;4.30;99.90;;;;;;5074008;28;20370;-72
2021/01/19 11:56:16;;;;;;;56.35;30.77;;;3.60;99.90;;;;;;5073791;28;20021;-72
2021/01/19 11:58:43;;;;;;;54.35;31.15;;;4.30;99.90;;;;;;5072662;28;20031;-72
2021/01/19 12:01:09;;;;;;;50.88;30.13;;;4.00;99.90;;;;;;5073808;28;20063;-73
2021/01/19 12:03:35;;;;;;;54.25;29.27;;;3.90;99.90;;;;;;5066589;28;20026;-72
2021/01/19 12:06:00;;;;;;;56.80;30.00;;;3.90;99.90;;;;;;5034588;28;20130;-73
2021/01/19 12:08:26;;;;;;;67.88;35.08;;;3.90;99.90;;;;;;5035977;28;20021;-73
2021/01/19 12:10:52;;;;;;;56.28;32.55;;;3.90;99.90;;;;;;5053593;28;20072;-73
2021/01/19 12:13:18;;;;;;;56.75;31.67;;;3.90;99.90;;;;;;5073621;28;20024;-75
2021/01/19 12:15:44;;;;;;;108.47;58.58;;;3.80;99.90;;;;;;5052485;28;20054;-72
2021/01/19 12:18:10;;;;;;;75.93;38.65;;;3.60;99.90;;;;;;5073755;28;20041;-73
2021/01/19 12:20:39;;;;;;;93.22;44.22;;;3.60;99.90;;;;;;5055623;28;20029;-72
2021/01/19 12:23:05;;;;;;;75.72;41.40;;;3.60;99.90;;;;;;5079846;28;20063;-71
2021/01/19 12:25:31;;;;;;;77.30;37.15;;;3.30;99.90;;;;;;5082962;28;20527;-73
2021/01/19 12:27:57;;;;;;;80.55;44.28;;;3.60;99.90;;;;;;5073035;28;20470;-74
2021/01/19 12:30:24;;;;;;;100.85;48.28;;;3.60;99.90;;;;;;5055009;28;20478;-72
2021/01/19 12:32:50;;;;;;;60.95;33.20;;;3.50;99.90;;;;;;5072985;28;20425;-75
2021/01/19 12:35:15;;;;;;;56.90;32.80;;;3.30;99.90;;;;;;5072375;28;20094;-74
2021/01/19 12:37:41;;;;;;;54.15;29.27;;;3.60;99.90;;;;;;5070307;28;20467;-73
2021/01/19 12:40:08;;;;;;;53.00;29.95;;;3.60;99.90;;;;;;5055893;28;20082;-74
2021/01/19 12:42:34;;;;;;;54.40;28.90;;;3.60;99.90;;;;;;5072509;28;20048;-72
2021/01/19 12:44:59;;;;;;;46.28;25.60;;;3.40;99.90;;;;;;5072029;28;20103;-73
2021/01/19 12:47:25;;;;;;;47.13;25.63;;;3.60;99.90;;;;;;5071902;28;20095;-72
2021/01/19 12:49:52;;;;;;;51.35;28.00;;;3.40;99.90;;;;;;5070949;28;20545;-74
2021/01/19 12:52:18;;;;;;;51.97;28.60;;;3.40;99.90;;;;;;5070991;28;20488;-75
2021/01/19 12:54:43;;;;;;;55.28;30.48;;;3.80;99.90;;;;;;5071251;28;20645;-72
2021/01/19 12:57:15;;;;;;;47.58;27.52;;;3.50;99.90;;;;;;5065407;28;20025;-72
2021/01/19 12:59:43;;;;;;;54.53;29.58;;;3.60;99.90;;;;;;5070930;28;20032;-73
2021/01/19 13:02:09;;;;;;;45.83;27.77;;;3.50;99.90;;;;;;5038654;28;20470;-73
2021/01/19 13:04:35;;;;;;;47.70;28.92;;;3.50;99.90;;;;;;5070599;28;20020;-77
2021/01/19 13:07:01;;;;;;;55.30;29.35;;;3.80;99.90;;;;;;5050482;28;20441;-72
2021/01/19 13:09:27;;;;;;;47.83;28.70;;;3.90;99.90;;;;;;5053952;28;20024;-73
2021/01/19 13:11:53;;;;;;;47.40;27.77;;;3.30;99.90;;;;;;5071361;28;20040;-74
2021/01/19 13:14:19;;;;;;;44.90;27.77;;;3.30;99.90;;;;;;5053405;28;20056;-73
2021/01/19 13:16:44;;;;;;;46.35;26.90;;;3.40;99.90;;;;;;5071254;28;20056;-72
2021/01/19 13:19:10;;;;;;;45.55;28.02;;;3.30;99.90;;;;;;5071853;28;20465;-74
2021/01/19 13:21:36;;;;;;;50.35;28.48;;;3.20;99.90;;;;;;5072222;28;20067;-72
2021/01/19 13:24:02;;;;;;;53.53;27.38;;;3.20;99.90;;;;;;5054730;28;20041;-72
2021/01/19 13:26:28;;;;;;;48.78;27.67;;;3.30;99.90;;;;;;5071285;28;20031;-73
2021/01/19 13:28:54;;;;;;;53.20;30.20;;;3.10;99.90;;;;;;5072451;28;20028;-71
2021/01/19 13:31:23;;;;;;;49.35;27.65;;;3.20;99.90;;;;;;5042320;28;20075;-74
2021/01/19 13:33:50;;;;;;;52.67;29.58;;;;;;;;;;5072176;28;20041;-73
2021/01/19 13:36:16;;;;;;;50.65;29.00;;;3.30;99.90;;;;;;5071702;28;20023;-74
2021/01/19 13:38:42;;;;;;;49.95;30.23;;;3.10;99.90;;;;;;5071994;28;20017;-77
2021/01/19 13:41:08;;;;;;;52.22;30.10;;;3.00;99.90;;;;;;5053985;28;20441;-75
2021/01/19 13:43:33;;;;;;;52.22;31.30;;;2.90;99.90;;;;;;5069688;28;20092;-74
2021/01/19 13:45:59;;;;;;;55.10;30.92;;;3.00;99.90;;;;;;5072009;28;20034;-75